FC2ブログ

ディスパッチャーの航空気象情報

運航管理者が航空に関する気象情報サイトを集めました。 フライト前に天気チェックに。ディスパッチャーになりたい人に。
上記の広告は1ヶ月以上更新のないブログに表示されています。
新しい記事を書く事で広告が消せます。
移動性の高気圧に覆われるため、おだやかに晴れる所が多い。
ただ、前線の通過する北海道は、夜は雪になり、降り方の強まることも。
東北南部から東海は、低気圧の影響で、午前中は雨が降るが、しだいに日差しが戻りそう。
日中の気温は27日と同じぐらいの所が多く、西日本は春の暖かさが続く。
関東では海からの冷たい空気が流れ込み、真冬の寒さが戻るため、体調管理には十分な注意が必要。


by 天気のツボ

北海道では前線が通過するので、RJCCのTAFを見てみましょう。

RJCC 272037Z 2721/2824 36004KT 9999 FEW015 BKN040 BECMG 2800/2802 16005KT BECMG 2815/2818 34010KT TEMPO 2815/2818 3000 -SHSN TEMPO 2821/2824 3000 -SHSN

午前中は南風。
夜に寒冷前線が通過して北風になる見込み。
その後、雪も予想されています。
METARの気圧変化も要チェックですね。

天気・気象学のホームページをチェック
コメント
この記事へのコメント
コメントを投稿する
URL:
Comment:
Pass:
秘密: 管理者にだけ表示を許可する
 
トラックバック
この記事のトラックバックURL
http://wxdisp.blog113.fc2.com/tb.php/21-d4db79f7
この記事にトラックバックする(FC2ブログユーザー)
この記事へのトラックバック
上記広告は1ヶ月以上更新のないブログに表示されています。新しい記事を書くことで広告を消せます。